sensor_id;sensor_type;location;lat;lon;timestamp;pressure;altitude;pressure_sealevel;temperature;humidity
49178;BME280;35016;55.674;37.468;2023-01-31T00:00:24;97053.47;;;-0.80;72.88
49178;BME280;35016;55.674;37.468;2023-01-31T00:03:15;97059.84;;;-0.81;72.70
49178;BME280;35016;55.674;37.468;2023-01-31T00:05:43;97052.13;;;-0.82;72.82
49178;BME280;35016;55.674;37.468;2023-01-31T00:08:28;97063.31;;;-0.80;72.81
49178;BME280;35016;55.674;37.468;2023-01-31T00:11:13;97052.69;;;-0.80;72.88
49178;BME280;35016;55.674;37.468;2023-01-31T00:13:54;97056.16;;;-0.80;72.88
49178;BME280;35016;55.674;37.468;2023-01-31T00:19:23;97041.47;;;-0.82;72.87
49178;BME280;35016;55.674;37.468;2023-01-31T00:21:50;97060.34;;;-0.84;72.75
49178;BME280;35016;55.674;37.468;2023-01-31T00:24:24;97071.78;;;-0.83;72.89
49178;BME280;35016;55.674;37.468;2023-01-31T00:27:07;97067.03;;;-0.81;73.06
49178;BME280;35016;55.674;37.468;2023-01-31T00:29:42;97064.38;;;-0.81;72.95
49178;BME280;35016;55.674;37.468;2023-01-31T00:32:27;97054.53;;;-0.81;72.94
49178;BME280;35016;55.674;37.468;2023-01-31T00:34:58;97058.31;;;-0.77;72.80
49178;BME280;35016;55.674;37.468;2023-01-31T00:37:25;97050.31;;;-0.77;72.98
49178;BME280;35016;55.674;37.468;2023-01-31T00:40:04;97064.44;;;-0.76;72.88
49178;BME280;35016;55.674;37.468;2023-01-31T00:42:59;97067.59;;;-0.79;73.01
49178;BME280;35016;55.674;37.468;2023-01-31T00:45:25;97075.56;;;-0.79;72.73
49178;BME280;35016;55.674;37.468;2023-01-31T00:48:07;97067.91;;;-0.76;72.77
49178;BME280;35016;55.674;37.468;2023-01-31T00:51:03;97081.19;;;-0.76;73.03
49178;BME280;35016;55.674;37.468;2023-01-31T00:53:30;97086.28;;;-0.74;72.95
49178;BME280;35016;55.674;37.468;2023-01-31T00:56:14;97082.00;;;-0.75;72.90
49178;BME280;35016;55.674;37.468;2023-01-31T00:58:47;97080.94;;;-0.74;72.86
49178;BME280;35016;55.674;37.468;2023-01-31T01:07:41;97084.47;;;-0.69;73.12
49178;BME280;35016;55.674;37.468;2023-01-31T01:10:15;97089.81;;;-0.69;72.86
49178;BME280;35016;55.674;37.468;2023-01-31T01:12:54;97087.94;;;-0.68;73.13
49178;BME280;35016;55.674;37.468;2023-01-31T01:15:35;97089.56;;;-0.67;72.78
49178;BME280;35016;55.674;37.468;2023-01-31T01:18:14;97092.78;;;-0.65;73.08
49178;BME280;35016;55.674;37.468;2023-01-31T01:20:46;97094.69;;;-0.60;73.10
49178;BME280;35016;55.674;37.468;2023-01-31T01:23:43;97096.88;;;-0.57;72.76
49178;BME280;35016;55.674;37.468;2023-01-31T01:26:29;97081.47;;;-0.55;72.80
49178;BME280;35016;55.674;37.468;2023-01-31T01:29:06;97075.34;;;-0.56;72.82
49178;BME280;35016;55.674;37.468;2023-01-31T01:31:40;97081.47;;;-0.55;72.94
49178;BME280;35016;55.674;37.468;2023-01-31T01:34:10;97079.59;;;-0.55;73.01
49178;BME280;35016;55.674;37.468;2023-01-31T01:36:48;97087.59;;;-0.55;72.97
49178;BME280;35016;55.674;37.468;2023-01-31T01:39:23;97077.75;;;-0.54;73.08
49178;BME280;35016;55.674;37.468;2023-01-31T01:41:53;97106.22;;;-0.55;72.90
49178;BME280;35016;55.674;37.468;2023-01-31T01:50:24;97090.00;;;-0.53;72.81
49178;BME280;35016;55.674;37.468;2023-01-31T01:53:04;97083.63;;;-0.52;72.76
49178;BME280;35016;55.674;37.468;2023-01-31T01:58:18;97084.69;;;-0.53;72.76
49178;BME280;35016;55.674;37.468;2023-01-31T02:00:49;97076.69;;;-0.53;73.21
49178;BME280;35016;55.674;37.468;2023-01-31T02:03:29;97083.88;;;-0.54;72.83
49178;BME280;35016;55.674;37.468;2023-01-31T02:06:01;97064.19;;;-0.53;73.13
49178;BME280;35016;55.674;37.468;2023-01-31T02:08:35;97080.97;;;-0.52;72.86
49178;BME280;35016;55.674;37.468;2023-01-31T02:13:37;97072.44;;;-0.54;72.89
49178;BME280;35016;55.674;37.468;2023-01-31T02:16:16;97063.88;;;-0.56;72.74
49178;BME280;35016;55.674;37.468;2023-01-31T02:18:47;97068.63;;;-0.58;73.00
49178;BME280;35016;55.674;37.468;2023-01-31T02:39:58;97063.09;;;-0.57;73.17
49178;BME280;35016;55.674;37.468;2023-01-31T02:42:33;97066.56;;;-0.56;73.02
49178;BME280;35016;55.674;37.468;2023-01-31T02:45:26;97060.16;;;-0.55;73.14
49178;BME280;35016;55.674;37.468;2023-01-31T02:50:54;97072.72;;;-0.51;73.03
49178;BME280;35016;55.674;37.468;2023-01-31T02:53:36;97072.22;;;-0.48;73.01
49178;BME280;35016;55.674;37.468;2023-01-31T02:56:20;97065.06;;;-0.47;73.11
49178;BME280;35016;55.674;37.468;2023-01-31T03:02:10;97082.88;;;-0.48;72.92
49178;BME280;35016;55.674;37.468;2023-01-31T03:04:38;97081.03;;;-0.47;72.91
49178;BME280;35016;55.674;37.468;2023-01-31T03:07:13;97079.97;;;-0.46;73.14
49178;BME280;35016;55.674;37.468;2023-01-31T03:18:36;97079.53;;;-0.38;72.75
49178;BME280;35016;55.674;37.468;2023-01-31T03:23:47;97094.44;;;-0.37;73.03
49178;BME280;35016;55.674;37.468;2023-01-31T03:26:20;97086.72;;;-0.39;73.17
49178;BME280;35016;55.674;37.468;2023-01-31T03:28:54;97089.63;;;-0.40;72.85
49178;BME280;35016;55.674;37.468;2023-01-31T03:31:57;97095.50;;;-0.38;72.80
49178;BME280;35016;55.674;37.468;2023-01-31T03:34:29;97100.56;;;-0.37;73.07
49178;BME280;35016;55.674;37.468;2023-01-31T03:37:25;97111.78;;;-0.35;73.09
49178;BME280;35016;55.674;37.468;2023-01-31T03:40:19;97111.53;;;-0.33;73.01
49178;BME280;35016;55.674;37.468;2023-01-31T03:43:10;97088.91;;;-0.31;73.10
49178;BME280;35016;55.674;37.468;2023-01-31T03:45:48;97113.69;;;-0.30;72.68
49178;BME280;35016;55.674;37.468;2023-01-31T03:48:26;97116.34;;;-0.30;72.84
49178;BME280;35016;55.674;37.468;2023-01-31T03:50:59;97109.97;;;-0.29;73.01
49178;BME280;35016;55.674;37.468;2023-01-31T03:53:47;97115.63;;;-0.25;72.87
49178;BME280;35016;55.674;37.468;2023-01-31T03:56:28;97117.25;;;-0.24;72.93
49178;BME280;35016;55.674;37.468;2023-01-31T04:02:09;97102.88;;;-0.23;72.66
49178;BME280;35016;55.674;37.468;2023-01-31T04:04:59;97112.97;;;-0.25;73.01
49178;BME280;35016;55.674;37.468;2023-01-31T04:07:39;97114.03;;;-0.26;72.92
49178;BME280;35016;55.674;37.468;2023-01-31T04:10:12;97122.81;;;-0.26;72.75
49178;BME280;35016;55.674;37.468;2023-01-31T04:12:46;97110.56;;;-0.27;72.85
49178;BME280;35016;55.674;37.468;2023-01-31T04:15:14;97122.81;;;-0.26;72.81
49178;BME280;35016;55.674;37.468;2023-01-31T04:20:42;97126.03;;;-0.24;72.91
49178;BME280;35016;55.674;37.468;2023-01-31T04:23:19;97126.84;;;-0.23;73.01
49178;BME280;35016;55.674;37.468;2023-01-31T04:29:55;97123.13;;;-0.22;72.73
49178;BME280;35016;55.674;37.468;2023-01-31T04:35:40;97136.19;;;-0.21;72.90
49178;BME280;35016;55.674;37.468;2023-01-31T04:38:23;97137.25;;;-0.22;72.75
49178;BME280;35016;55.674;37.468;2023-01-31T04:40:57;97138.28;;;-0.23;72.69
49178;BME280;35016;55.674;37.468;2023-01-31T04:43:25;97146.28;;;-0.23;72.89
49178;BME280;35016;55.674;37.468;2023-01-31T04:45:58;97149.75;;;-0.22;72.77
49178;BME280;35016;55.674;37.468;2023-01-31T04:48:29;97168.88;;;-0.25;72.82
49178;BME280;35016;55.674;37.468;2023-01-31T04:50:56;97162.75;;;-0.26;73.07
49178;BME280;35016;55.674;37.468;2023-01-31T04:53:27;97159.28;;;-0.26;72.81
49178;BME280;35016;55.674;37.468;2023-01-31T04:56:26;97164.06;;;-0.28;72.77
49178;BME280;35016;55.674;37.468;2023-01-31T04:58:53;97164.88;;;-0.28;73.02
49178;BME280;35016;55.674;37.468;2023-01-31T05:01:24;97158.25;;;-0.25;73.19
49178;BME280;35016;55.674;37.468;2023-01-31T05:03:54;97160.66;;;-0.24;72.99
49178;BME280;35016;55.674;37.468;2023-01-31T05:09:33;97153.47;;;-0.23;72.59
49178;BME280;35016;55.674;37.468;2023-01-31T05:12:02;97152.41;;;-0.22;72.68
49178;BME280;35016;55.674;37.468;2023-01-31T05:15:00;97162.25;;;-0.23;72.58
49178;BME280;35016;55.674;37.468;2023-01-31T05:17:55;97163.88;;;-0.22;72.91
49178;BME280;35016;55.674;37.468;2023-01-31T05:20:44;97163.63;;;-0.20;73.23
49178;BME280;35016;55.674;37.468;2023-01-31T05:23:20;97167.91;;;-0.19;72.91
49178;BME280;35016;55.674;37.468;2023-01-31T05:25:48;97175.63;;;-0.18;72.97
49178;BME280;35016;55.674;37.468;2023-01-31T05:31:18;97174.31;;;-0.15;72.77
49178;BME280;35016;55.674;37.468;2023-01-31T05:33:51;97175.63;;;-0.18;72.93
49178;BME280;35016;55.674;37.468;2023-01-31T05:36:34;97174.28;;;-0.20;73.03
49178;BME280;35016;55.674;37.468;2023-01-31T05:39:05;97184.38;;;-0.22;72.91
49178;BME280;35016;55.674;37.468;2023-01-31T05:41:34;97185.41;;;-0.23;72.74
49178;BME280;35016;55.674;37.468;2023-01-31T05:44:12;97175.56;;;-0.23;72.87
49178;BME280;35016;55.674;37.468;2023-01-31T05:46:46;97184.94;;;-0.20;72.80
49178;BME280;35016;55.674;37.468;2023-01-31T05:49:13;97178.03;;;-0.16;73.13
49178;BME280;35016;55.674;37.468;2023-01-31T05:51:43;97181.75;;;-0.17;72.80
49178;BME280;35016;55.674;37.468;2023-01-31T05:54:23;97177.25;;;-0.17;73.17
49178;BME280;35016;55.674;37.468;2023-01-31T05:56:52;97178.59;;;-0.14;73.07
49178;BME280;35016;55.674;37.468;2023-01-31T05:59:23;97185.53;;;-0.13;73.08
49178;BME280;35016;55.674;37.468;2023-01-31T06:01:59;97183.94;;;-0.14;72.92
49178;BME280;35016;55.674;37.468;2023-01-31T06:04:27;97179.41;;;-0.14;73.16
49178;BME280;35016;55.674;37.468;2023-01-31T06:07:06;97191.66;;;-0.13;73.02
49178;BME280;35016;55.674;37.468;2023-01-31T06:09:39;97195.69;;;-0.10;72.95
49178;BME280;35016;55.674;37.468;2023-01-31T06:12:16;97197.31;;;-0.09;73.00
49178;BME280;35016;55.674;37.468;2023-01-31T06:14:46;97195.75;;;-0.05;72.90
49178;BME280;35016;55.674;37.468;2023-01-31T06:17:18;97198.72;;;-0.02;73.26
49178;BME280;35016;55.674;37.468;2023-01-31T06:20:05;97199.88;;;0.03;73.15
49178;BME280;35016;55.674;37.468;2023-01-31T06:22:32;97205.44;;;0.01;72.85
49178;BME280;35016;55.674;37.468;2023-01-31T06:25:39;97193.72;;;0.02;73.26
49178;BME280;35016;55.674;37.468;2023-01-31T06:28:17;97206.81;;;0.04;72.88
49178;BME280;35016;55.674;37.468;2023-01-31T06:30:44;97206.00;;;0.03;72.85
49178;BME280;35016;55.674;37.468;2023-01-31T06:33:17;97215.03;;;0.02;72.90
49178;BME280;35016;55.674;37.468;2023-01-31T06:36:13;97226.25;;;0.04;72.89
49178;BME280;35016;55.674;37.468;2023-01-31T06:39:17;97230.03;;;0.08;73.08
49178;BME280;35016;55.674;37.468;2023-01-31T06:42:18;97228.72;;;0.11;73.10
49178;BME280;35016;55.674;37.468;2023-01-31T06:45:12;97241.28;;;0.15;72.90
49178;BME280;35016;55.674;37.468;2023-01-31T06:47:48;97230.63;;;0.15;73.03
49178;BME280;35016;55.674;37.468;2023-01-31T06:50:16;97239.19;;;0.17;72.85
49178;BME280;35016;55.674;37.468;2023-01-31T06:52:43;97240.53;;;0.20;73.14
49178;BME280;35016;55.674;37.468;2023-01-31T06:55:13;97236.56;;;0.22;73.23
49178;BME280;35016;55.674;37.468;2023-01-31T06:57:51;97236.06;;;0.25;73.08
49178;BME280;35016;55.674;37.468;2023-01-31T07:00:27;97242.78;;;0.28;73.14
49178;BME280;35016;55.674;37.468;2023-01-31T07:02:56;97246.03;;;0.30;72.78
49178;BME280;35016;55.674;37.468;2023-01-31T07:05:28;97248.69;;;0.30;72.90
49178;BME280;35016;55.674;37.468;2023-01-31T07:07:56;97242.53;;;0.29;72.52
49178;BME280;35016;55.674;37.468;2023-01-31T07:10:26;97255.53;;;0.26;72.65
49178;BME280;35016;55.674;37.468;2023-01-31T07:12:59;97253.38;;;0.23;72.77
49178;BME280;35016;55.674;37.468;2023-01-31T07:15:37;97262.72;;;0.25;72.68
49178;BME280;35016;55.674;37.468;2023-01-31T07:18:33;97264.91;;;0.28;73.07
49178;BME280;35016;55.674;37.468;2023-01-31T07:21:03;97254.47;;;0.27;72.68
49178;BME280;35016;55.674;37.468;2023-01-31T07:23:37;97258.28;;;0.31;72.83
49178;BME280;35016;55.674;37.468;2023-01-31T07:28:55;97262.38;;;0.39;73.06
49178;BME280;35016;55.674;37.468;2023-01-31T07:31:22;97268.00;;;0.42;72.65
49178;BME280;35016;55.674;37.468;2023-01-31T07:33:49;97279.47;;;0.43;72.64
49178;BME280;35016;55.674;37.468;2023-01-31T07:36:16;97266.16;;;0.43;72.66
49178;BME280;35016;55.674;37.468;2023-01-31T07:38:48;97284.81;;;0.43;72.90
49178;BME280;35016;55.674;37.468;2023-01-31T07:41:16;97279.72;;;0.41;72.55
49178;BME280;35016;55.674;37.468;2023-01-31T07:43:43;97277.31;;;0.40;72.83
49178;BME280;35016;55.674;37.468;2023-01-31T07:46:10;97290.13;;;0.43;72.83
49178;BME280;35016;55.674;37.468;2023-01-31T07:48:39;97291.75;;;0.44;72.88
49178;BME280;35016;55.674;37.468;2023-01-31T07:51:06;97289.63;;;0.46;73.15
49178;BME280;35016;55.674;37.468;2023-01-31T07:53:35;97293.41;;;0.50;72.75
49178;BME280;35016;55.674;37.468;2023-01-31T07:56:05;97295.31;;;0.54;72.82
49178;BME280;35016;55.674;37.468;2023-01-31T07:58:35;97292.50;;;0.61;72.76
49178;BME280;35016;55.674;37.468;2023-01-31T08:01:02;97296.81;;;0.67;72.78
49178;BME280;35016;55.674;37.468;2023-01-31T08:03:50;97298.47;;;0.73;72.91
49178;BME280;35016;55.674;37.468;2023-01-31T08:06:17;97294.75;;;0.74;72.87
49178;BME280;35016;55.674;37.468;2023-01-31T08:08:44;97291.84;;;0.76;72.51
49178;BME280;35016;55.674;37.468;2023-01-31T08:11:11;97308.34;;;0.73;72.85
49178;BME280;35016;55.674;37.468;2023-01-31T08:13:38;97299.53;;;0.72;72.51
49178;BME280;35016;55.674;37.468;2023-01-31T08:16:06;97312.63;;;0.74;73.05
49178;BME280;35016;55.674;37.468;2023-01-31T08:18:34;97306.78;;;0.77;72.51
49178;BME280;35016;55.674;37.468;2023-01-31T08:21:01;97320.13;;;0.77;72.60
49178;BME280;35016;55.674;37.468;2023-01-31T08:23:28;97313.72;;;0.78;72.63
49178;BME280;35016;55.674;37.468;2023-01-31T08:26:00;97323.59;;;0.77;72.46
49178;BME280;35016;55.674;37.468;2023-01-31T08:28:26;97312.94;;;0.77;72.55
49178;BME280;35016;55.674;37.468;2023-01-31T08:30:54;97321.97;;;0.76;72.96
49178;BME280;35016;55.674;37.468;2023-01-31T08:33:39;97320.41;;;0.80;72.89
49178;BME280;35016;55.674;37.468;2023-01-31T08:36:09;97324.44;;;0.83;72.65
49178;BME280;35016;55.674;37.468;2023-01-31T08:38:37;97327.91;;;0.83;72.85
49178;BME280;35016;55.674;37.468;2023-01-31T08:41:04;97336.47;;;0.85;72.97
49178;BME280;35016;55.674;37.468;2023-01-31T08:43:31;97334.94;;;0.89;72.71
49178;BME280;35016;55.674;37.468;2023-01-31T08:46:18;97326.44;;;0.92;72.70
49178;BME280;35016;55.674;37.468;2023-01-31T08:48:45;97325.94;;;0.96;72.93
49178;BME280;35016;55.674;37.468;2023-01-31T08:51:13;97325.44;;;0.99;72.39
49178;BME280;35016;55.674;37.468;2023-01-31T08:53:40;97319.88;;;1.05;72.68
49178;BME280;35016;55.674;37.468;2023-01-31T08:56:09;97320.75;;;1.11;72.64
49178;BME280;35016;55.674;37.468;2023-01-31T08:58:37;97322.34;;;1.12;72.39
49178;BME280;35016;55.674;37.468;2023-01-31T09:01:06;97314.84;;;1.09;72.60
49178;BME280;35016;55.674;37.468;2023-01-31T09:03:33;97329.00;;;1.09;72.34
49178;BME280;35016;55.674;37.468;2023-01-31T09:06:01;97333.28;;;1.10;72.99
49178;BME280;35016;55.674;37.468;2023-01-31T09:08:28;97312.19;;;1.09;72.53
49178;BME280;35016;55.674;37.468;2023-01-31T09:10:56;97323.41;;;1.11;72.54
49178;BME280;35016;55.674;37.468;2023-01-31T09:13:24;97326.88;;;1.11;72.62
49178;BME280;35016;55.674;37.468;2023-01-31T09:18:26;97325.28;;;1.10;72.56
49178;BME280;35016;55.674;37.468;2023-01-31T09:20:58;97323.66;;;1.09;72.48
49178;BME280;35016;55.674;37.468;2023-01-31T09:23:30;97327.38;;;1.08;72.59
49178;BME280;35016;55.674;37.468;2023-01-31T09:25:58;97322.56;;;1.05;73.00
49178;BME280;35016;55.674;37.468;2023-01-31T09:28:27;97315.34;;;1.06;72.74
49178;BME280;35016;55.674;37.468;2023-01-31T09:31:06;97317.22;;;1.05;72.92
49178;BME280;35016;55.674;37.468;2023-01-31T09:33:35;97310.88;;;1.11;73.14
49178;BME280;35016;55.674;37.468;2023-01-31T09:36:06;97298.44;;;1.22;72.35
49178;BME280;35016;55.674;37.468;2023-01-31T09:38:34;97319.06;;;1.32;72.27
49178;BME280;35016;55.674;37.468;2023-01-31T09:41:03;97320.16;;;1.36;72.35
49178;BME280;35016;55.674;37.468;2023-01-31T09:43:36;97323.69;;;1.41;72.38
49178;BME280;35016;55.674;37.468;2023-01-31T09:46:05;97320.81;;;1.48;72.42
49178;BME280;35016;55.674;37.468;2023-01-31T09:48:41;97324.00;;;1.45;72.67
49178;BME280;35016;55.674;37.468;2023-01-31T09:51:09;97328.03;;;1.47;72.36
49178;BME280;35016;55.674;37.468;2023-01-31T09:53:38;97325.09;;;1.49;72.66
49178;BME280;35016;55.674;37.468;2023-01-31T09:56:17;97320.31;;;1.51;72.34
49178;BME280;35016;55.674;37.468;2023-01-31T10:01:47;97315.59;;;1.63;72.53
49178;BME280;35016;55.674;37.468;2023-01-31T10:09:34;97333.78;;;1.66;73.04
49178;BME280;35016;55.674;37.468;2023-01-31T10:15:04;97323.09;;;1.66;72.68
49178;BME280;35016;55.674;37.468;2023-01-31T10:17:41;97338.84;;;1.68;72.56
49178;BME280;35016;55.674;37.468;2023-01-31T10:20:28;97336.97;;;1.63;72.40
49178;BME280;35016;55.674;37.468;2023-01-31T10:23:01;97333.75;;;1.61;72.66
49178;BME280;35016;55.674;37.468;2023-01-31T10:25:36;97342.81;;;1.60;72.84
49178;BME280;35016;55.674;37.468;2023-01-31T10:28:07;97338.81;;;1.63;72.91
49178;BME280;35016;55.674;37.468;2023-01-31T10:31:01;97338.06;;;1.67;73.05
49178;BME280;35016;55.674;37.468;2023-01-31T10:33:42;97349.84;;;1.71;72.63
49178;BME280;35016;55.674;37.468;2023-01-31T10:44:12;97363.66;;;1.63;72.48
49178;BME280;35016;55.674;37.468;2023-01-31T10:46:41;97357.53;;;1.63;72.52
49178;BME280;35016;55.674;37.468;2023-01-31T10:49:09;97352.47;;;1.66;72.48
49178;BME280;35016;55.674;37.468;2023-01-31T10:57:22;97344.75;;;1.70;72.55
49178;BME280;35016;55.674;37.468;2023-01-31T10:59:51;97353.06;;;1.73;72.38
49178;BME280;35016;55.674;37.468;2023-01-31T11:02:21;97364.34;;;1.80;72.53
49178;BME280;35016;55.674;37.468;2023-01-31T11:04:50;97357.94;;;1.81;72.83
49178;BME280;35016;55.674;37.468;2023-01-31T11:07:22;97353.41;;;1.82;72.40
49178;BME280;35016;55.674;37.468;2023-01-31T11:09:51;97364.66;;;1.84;72.61
49178;BME280;35016;55.674;37.468;2023-01-31T11:12:21;97365.16;;;1.81;72.64
49178;BME280;35016;55.674;37.468;2023-01-31T11:15:10;97366.22;;;1.80;72.47
49178;BME280;35016;55.674;37.468;2023-01-31T11:17:40;97363.81;;;1.78;72.51
49178;BME280;35016;55.674;37.468;2023-01-31T11:20:30;97359.28;;;1.79;72.45
49178;BME280;35016;55.674;37.468;2023-01-31T11:23:04;97353.13;;;1.78;72.69
49178;BME280;35016;55.674;37.468;2023-01-31T11:25:32;97351.22;;;1.74;72.31
49178;BME280;35016;55.674;37.468;2023-01-31T11:28:00;97361.59;;;1.70;72.69
49178;BME280;35016;55.674;37.468;2023-01-31T11:30:37;97357.84;;;1.71;72.79
49178;BME280;35016;55.674;37.468;2023-01-31T11:33:06;97353.31;;;1.72;72.38
49178;BME280;35016;55.674;37.468;2023-01-31T11:35:33;97352.25;;;1.73;72.54
49178;BME280;35016;55.674;37.468;2023-01-31T11:40:37;97357.38;;;1.74;72.36
49178;BME280;35016;55.674;37.468;2023-01-31T11:45:45;97353.38;;;1.77;72.65
49178;BME280;35016;55.674;37.468;2023-01-31T11:48:23;97355.25;;;1.76;72.13
49178;BME280;35016;55.674;37.468;2023-01-31T11:50:53;97356.31;;;1.75;72.07
49178;BME280;35016;55.674;37.468;2023-01-31T11:53:23;97365.88;;;1.71;72.34
49178;BME280;35016;55.674;37.468;2023-01-31T11:55:51;97359.47;;;1.72;72.08
49178;BME280;35016;55.674;37.468;2023-01-31T11:58:21;97361.31;;;1.72;72.50
49178;BME280;35016;55.674;37.468;2023-01-31T12:00:54;97358.09;;;1.70;72.14
49178;BME280;35016;55.674;37.468;2023-01-31T12:03:25;97370.91;;;1.68;72.10
49178;BME280;35016;55.674;37.468;2023-01-31T12:06:00;97371.16;;;1.66;72.18
49178;BME280;35016;55.674;37.468;2023-01-31T12:08:28;97365.53;;;1.63;72.23
49178;BME280;35016;55.674;37.468;2023-01-31T12:10:58;97371.94;;;1.62;72.34
49178;BME280;35016;55.674;37.468;2023-01-31T12:13:27;97369.53;;;1.60;72.10
49178;BME280;35016;55.674;37.468;2023-01-31T12:15:56;97380.72;;;1.57;72.55
49178;BME280;35016;55.674;37.468;2023-01-31T12:21:08;97391.66;;;1.55;71.98
49178;BME280;35016;55.674;37.468;2023-01-31T12:26:12;97379.91;;;1.57;72.09
49178;BME280;35016;55.674;37.468;2023-01-31T12:31:39;97383.91;;;1.54;72.44
49178;BME280;35016;55.674;37.468;2023-01-31T12:36:46;97388.91;;;1.45;72.25
49178;BME280;35016;55.674;37.468;2023-01-31T12:42:15;97393.44;;;1.45;72.34
49178;BME280;35016;55.674;37.468;2023-01-31T12:47:40;97412.13;;;1.45;71.91
49178;BME280;35016;55.674;37.468;2023-01-31T12:52:55;97405.94;;;1.44;71.90
49178;BME280;35016;55.674;37.468;2023-01-31T12:55:31;97412.59;;;1.42;72.14
49178;BME280;35016;55.674;37.468;2023-01-31T13:00:55;97408.31;;;1.41;72.43
49178;BME280;35016;55.674;37.468;2023-01-31T13:06:07;97405.66;;;1.41;72.30
49178;BME280;35016;55.674;37.468;2023-01-31T13:09:24;97396.03;;;1.40;71.62
49178;BME280;35016;55.674;37.468;2023-01-31T13:11:37;97397.09;;;1.39;72.03
49178;BME280;35016;55.674;37.468;2023-01-31T13:14:08;97403.25;;;1.39;72.13
49178;BME280;35016;55.674;37.468;2023-01-31T13:16:39;97394.16;;;1.40;71.95
49178;BME280;35016;55.674;37.468;2023-01-31T13:19:50;97408.56;;;1.39;71.64
49178;BME280;35016;55.674;37.468;2023-01-31T13:21:58;97386.41;;;1.39;72.07
49178;BME280;35016;55.674;37.468;2023-01-31T13:24:28;97390.41;;;1.36;72.18
49178;BME280;35016;55.674;37.468;2023-01-31T13:26:59;97397.84;;;1.34;72.25
49178;BME280;35016;55.674;37.468;2023-01-31T13:29:38;97392.50;;;1.34;72.11
49178;BME280;35016;55.674;37.468;2023-01-31T13:32:11;97391.97;;;1.32;71.96
49178;BME280;35016;55.674;37.468;2023-01-31T13:37:16;97413.31;;;1.32;72.09
49178;BME280;35016;55.674;37.468;2023-01-31T13:39:48;97434.13;;;1.30;71.73
49178;BME280;35016;55.674;37.468;2023-01-31T13:42:16;97438.91;;;1.28;71.99
49178;BME280;35016;55.674;37.468;2023-01-31T13:44:45;97438.84;;;1.23;71.84
49178;BME280;35016;55.674;37.468;2023-01-31T13:47:13;97447.38;;;1.20;72.13
49178;BME280;35016;55.674;37.468;2023-01-31T13:50:26;97452.97;;;1.18;71.86
49178;BME280;35016;55.674;37.468;2023-01-31T13:52:38;97448.44;;;1.19;71.90
49178;BME280;35016;55.674;37.468;2023-01-31T13:55:29;97453.22;;;1.17;72.28
49178;BME280;35016;55.674;37.468;2023-01-31T13:57:56;97459.81;;;1.14;71.56
49178;BME280;35016;55.674;37.468;2023-01-31T14:03:03;97456.59;;;1.12;71.65
49178;BME280;35016;55.674;37.468;2023-01-31T14:08:27;97455.53;;;1.13;72.11
49178;BME280;35016;55.674;37.468;2023-01-31T14:10:55;97444.63;;;1.15;71.83
49178;BME280;35016;55.674;37.468;2023-01-31T14:15:50;97456.69;;;1.17;71.93
49178;BME280;35016;55.674;37.468;2023-01-31T14:24:02;97459.59;;;1.16;71.78
49178;BME280;35016;55.674;37.468;2023-01-31T14:29:18;97472.13;;;1.15;71.56
49178;BME280;35016;55.674;37.468;2023-01-31T14:31:50;97475.63;;;1.16;71.81
49178;BME280;35016;55.674;37.468;2023-01-31T14:42:52;97485.28;;;1.22;71.37
49178;BME280;35016;55.674;37.468;2023-01-31T14:59:31;97475.94;;;1.19;71.58
49178;BME280;35016;55.674;37.468;2023-01-31T15:02:43;97474.88;;;1.20;71.08
49178;BME280;35016;55.674;37.468;2023-01-31T15:09:16;97475.38;;;1.17;71.52
49178;BME280;35016;55.674;37.468;2023-01-31T15:11:52;97486.03;;;1.17;71.38
49178;BME280;35016;55.674;37.468;2023-01-31T15:17:14;97492.66;;;1.15;71.27
49178;BME280;35016;55.674;37.468;2023-01-31T15:20:21;97488.13;;;1.15;71.51
49178;BME280;35016;55.674;37.468;2023-01-31T15:22:55;97496.97;;;1.16;71.49
49178;BME280;35016;55.674;37.468;2023-01-31T15:26:06;97490.00;;;1.15;71.79
49178;BME280;35016;55.674;37.468;2023-01-31T15:28:39;97500.44;;;1.16;71.73
49178;BME280;35016;55.674;37.468;2023-01-31T15:31:39;97503.13;;;1.16;71.54
49178;BME280;35016;55.674;37.468;2023-01-31T15:34:16;97507.41;;;1.17;71.57
49178;BME280;35016;55.674;37.468;2023-01-31T15:40:20;97510.13;;;1.22;71.79
49178;BME280;35016;55.674;37.468;2023-01-31T15:45:47;97514.66;;;1.22;71.62
49178;BME280;35016;55.674;37.468;2023-01-31T15:48:26;97510.94;;;1.23;71.78
49178;BME280;35016;55.674;37.468;2023-01-31T15:50:58;97509.06;;;1.23;71.87
49178;BME280;35016;55.674;37.468;2023-01-31T15:53:26;97510.69;;;1.24;71.58
49178;BME280;35016;55.674;37.468;2023-01-31T15:56:00;97510.44;;;1.26;71.52
49178;BME280;35016;55.674;37.468;2023-01-31T15:58:31;97510.69;;;1.24;71.39
49178;BME280;35016;55.674;37.468;2023-01-31T16:01:02;97518.38;;;1.21;71.62
49178;BME280;35016;55.674;37.468;2023-01-31T16:03:31;97499.16;;;1.19;71.62
49178;BME280;35016;55.674;37.468;2023-01-31T16:06:00;97504.72;;;1.17;71.34
49178;BME280;35016;55.674;37.468;2023-01-31T16:08:33;97512.75;;;1.17;71.66
49178;BME280;35016;55.674;37.468;2023-01-31T16:11:02;97522.59;;;1.17;71.36
49178;BME280;35016;55.674;37.468;2023-01-31T16:13:32;97518.63;;;1.19;71.50
49178;BME280;35016;55.674;37.468;2023-01-31T16:16:04;97510.63;;;1.19;71.56
49178;BME280;35016;55.674;37.468;2023-01-31T16:18:33;97531.97;;;1.19;71.73
49178;BME280;35016;55.674;37.468;2023-01-31T16:21:12;97517.56;;;1.20;71.53
49178;BME280;35016;55.674;37.468;2023-01-31T16:23:42;97524.78;;;1.20;71.83
49178;BME280;35016;55.674;37.468;2023-01-31T16:26:19;97535.72;;;1.18;71.38
49178;BME280;35016;55.674;37.468;2023-01-31T16:28:58;97543.97;;;1.17;71.86
49178;BME280;35016;55.674;37.468;2023-01-31T16:31:30;97540.50;;;1.16;71.75
49178;BME280;35016;55.674;37.468;2023-01-31T16:34:01;97541.50;;;1.15;71.88
49178;BME280;35016;55.674;37.468;2023-01-31T16:41:56;97541.19;;;1.12;71.63
49178;BME280;35016;55.674;37.468;2023-01-31T16:44:31;97547.34;;;1.12;71.86
49178;BME280;35016;55.674;37.468;2023-01-31T16:47:03;97547.59;;;1.11;71.83
49178;BME280;35016;55.674;37.468;2023-01-31T16:49:35;97543.88;;;1.12;72.05
49178;BME280;35016;55.674;37.468;2023-01-31T16:52:27;97549.22;;;1.12;71.80